Charlwood, United Kingdom

5:21 PM GMT on February 25, 2017 (GMT +0000)
Ifield, Crawley, West Sussex | | Change Station

Elev 259 ft 51.11 °N, 0.23 °W | Updated 0 second ago

Light Rain
Light Rain
47.0 °F
Feels Like 42 °F
N
10.4
Wind Variable Wind from SSW
Gusts 10.4 mph

Today
High -- | Low -- °F
--% Chance of Precip.
Yesterday
High -- | Low -- °F
Precip. -- in
Pressure 29.89 in
Visibility 6.2 miles
Clouds Mostly Cloudy 1500 ft
Windchill 42 °F
Dew Point 44 °F
Humidity 88%
Rainfall 0.00 in
Snow Depth Not available.
6:53 AM 5:34 PM
Waning Crescent, 1% visible
METAR EGKK 251650Z 22012KT 190V260 9999 -RA BKN015 09/06 Q1012
Pressure 29.89 in
Visibility 6.2 miles
Clouds Mostly Cloudy 1500 ft
Windchill 42 °F
Dew Point 44 °F
Humidity 88%
Rainfall 0.00 in
Snow Depth Not available.
6:53 AM 5:34 PM
Waning Crescent, 1% visible
METAR EGKK 251650Z 22012KT 190V260 9999 -RA BKN015 09/06 Q1012

Get Your Daily Forecast Email!

Thanks for signing up!

Be on the lookout for a verification email in your inbox.

You'll start receiving the daily forecast at 8 AM.

×

10-Day Weather Forecast

×

Almanac

Astronomy

Feb. 25, 2017 Rise Set
Actual Time
Civil Twilight
Nautical Twilight
Astronomical Twilight
Moon
Length of Visible Light
Length of Day
Tomorrow will be .
, % of the Moon is Illuminated

Today's Extremes

Country Highs Country Lows

Community

WunderPhotos

Upload Photos

1,962,540 photos uploaded!

WunderBlog® & News

Nearby

Air Quality

  Air Quality AQ Index Pollutant
Not available.

Snow Depth

Station Depth Elevation

Earthquake Activity

City Distance Mag. Time & Date
Minimum magnitude displayed is 2.5.

Coastal Water Temperatures

Place Temperature

Stations

Nearby Weather Stations

Station Location Temp. Windchill Dew Point Humidity Wind Precip. Elev Updated Type